Flight Information

DEPARTURE
SAN DIEGO, CA
Elevation:
427
Runways:
5/23 - 3400x75 - ASPH-TRTD-E
10R/28L - 3401x60 - ASPH-G
10L/28R - 4598x150 - ASPH-G
H1 - 48x48 - ASPH-G
Active PE Departure:
28R - 28L
Current PE ATIS:
R
Altimeter:
30.04
Remarks:
ATIS:
126.9 858-277-3075
Clearance Delivery:
123.725
Ground:
118.22
Tower:
119.2 125.7
DESTINATION
,
Elevation:
TPA:
1000 (est.)


6752.3 NM74° True-13° Var61° HDG

Flight Plan:
(click to file on line)

1. Type
2. Aircraft Identification
3. Aircraft Type / Special Equipment
4. True Airspeed
kts
5. Departure Airport
(ICAO code)
6. Arriving Airport
(ICAO code)
7. Cruising Altitude
ft
8. Alternate Airport
(ICAO code)
9. Route of Flight
10. Remarks


00:00:00 Departure ATIS: Destination ATIS:

Clearance Limit:
Route:
Altitude: Expect in minutes
Frequency:
Transponder: (7500 Hijack / 7600 Lost Comms / 7700 Emergency)


KMYF 221553Z 13004KT 10SM FEW012 BKN020 BKN028 12/09 A3004 RMK AO2 SLP170 T01220089
Time: 2021-01-22T15:53:00Z
1611331245
Winds: 130 @ 4 kts
Visibility: 10.0 sm
Clouds (AGL): FEW 1200
BKN 2000
BKN 2800
Temperature: 12.2 C
Dew Point: 8.9 C
Pressure: 30.041338 in Hgbr


Notes:

Data extracted from FAA Digital Chart Supplement. Effective: 0901Z Thursday, Dec 31, 2020 to 0901Z Thursday, Jan 28, 2021
Current ATIS data is provided courtisy of PilotEdge.